Time;durP1;ratioP1;P1;durP2;ratioP2;P2;SDS_P1;SDS_P2;PMS_P1;PMS_P2;Temp;Humidity;BMP_temperature;BMP_pressure;BME280_temperature;BME280_humidity;BME280_pressure;Samples;Min_cycle;Max_cycle;Signal;HPM_P1;HPM_P2
2023/04/11 00:05:59;;;;;;;41.40;19.00;;;;;;;;;;5025232;23;20076;-96
2023/04/11 00:08:36;;;;;;;36.38;19.33;;;;;;;;;;4914448;29;20066;-96
2023/04/11 00:11:08;;;;;;;39.53;19.83;;;;;;;;;;4897367;29;20039;-95
2023/04/11 00:14:16;;;;;;;35.65;18.88;;;;;;;;;;4898260;29;20048;-96
2023/04/11 00:17:17;;;;;;;34.63;18.13;;;;;;;;;;4901171;29;20049;-96
2023/04/11 00:20:06;;;;;;;33.58;16.48;;;;;;;;;;4894506;29;20065;-96
2023/04/11 00:23:17;;;;;;;;;;;;;;;;;;;;;
2023/04/11 00:32:24;;;;;;;;;;;;;;;;;;;;;
2023/04/11 00:35:26;;;;;;;48.25;22.13;;;;;;;;;;4786102;30;20103;-96
2023/04/11 00:38:03;;;;;;;37.97;19.35;;;;;;;;;;4767674;30;20056;-95
2023/04/11 00:46:56;;;;;;;39.05;20.60;;;;;;;;;;4878436;29;20554;-96
2023/04/11 00:49:42;;;;;;;45.75;22.13;;;;;;;;;;4911156;29;20565;-96
2023/04/11 00:52:46;;;;;;;48.50;22.40;;;;;;;;;;4892311;29;20036;-96
2023/04/11 00:58:58;;;;;;;36.65;20.15;;;;;;;;;;4822073;29;20054;-96
2023/04/11 01:01:49;;;;;;;42.70;20.30;;;;;;;;;;4823201;29;20059;-96
2023/04/11 01:04:52;;;;;;;48.08;21.73;;;;;;;;;;4893996;29;20029;-96
2023/04/11 01:07:57;;;;;;;;;;;;;;;;;;;;;
2023/04/11 01:10:40;;;;;;;36.45;18.85;;;;;;;;;;4899347;29;20060;-96
2023/04/11 01:13:39;;;;;;;42.97;20.13;;;;;;;;;;4897433;29;20077;-96
2023/04/11 01:19:29;;;;;;;31.95;16.33;;;;;;;;;;4855762;29;20018;-95
2023/04/11 01:22:22;;;;;;;33.28;18.15;;;;;;;;;;4851874;29;20025;-96
2023/04/11 01:31:24;;;;;;;33.95;17.38;;;;;;;;;;4896478;29;20045;-96
2023/04/11 01:34:17;;;;;;;;;;;;;;;;;;;;;
2023/04/11 01:36:57;;;;;;;30.25;15.90;;;;;;;;;;4900101;29;20076;-96
2023/04/11 01:39:56;;;;;;;36.20;16.83;;;;;;;;;;4898995;29;20037;-96
2023/04/11 01:45:27;;;;;;;28.17;15.02;;;;;;;;;;4887863;29;20070;-96
2023/04/11 01:48:07;;;;;;;30.70;16.52;;;;;;;;;;4888190;29;20037;-96
2023/04/11 01:51:06;;;;;;;37.17;17.58;;;;;;;;;;4897326;29;20025;-94
2023/04/11 02:07:09;;;;;;;42.38;18.52;;;;;;;;;;5321861;23;20060;-96
2023/04/11 02:09:55;;;;;;;41.05;18.75;;;;;;;;;;4895370;29;20048;-96
2023/04/11 02:12:53;;;;;;;41.92;18.50;;;;;;;;;;4894769;29;20045;-96
2023/04/11 02:15:35;;;;;;;;;;;;;;;;;;;;;
2023/04/11 02:18:20;;;;;;;;;;;;;;;;;;;;;
2023/04/11 02:21:22;;;;;;;33.15;17.30;;;;;;;;;;4896520;29;20512;-95
2023/04/11 02:24:24;;;;;;;37.05;18.30;;;;;;;;;;4859638;29;20053;-95
2023/04/11 02:27:21;;;;;;;38.90;17.77;;;;;;;;;;4878832;29;20069;-95
2023/04/11 02:30:20;;;;;;;;;;;;;;;;;;;;;
2023/04/11 02:33:36;;;;;;;;;;;;;;;;;;;;;
2023/04/11 02:39:50;;;;;;;34.70;16.58;;;;;;;;;;4846077;29;20384;-96
2023/04/11 02:42:25;;;;;;;30.90;16.05;;;;;;;;;;4897584;29;20037;-96
2023/04/11 02:45:40;;;;;;;36.65;16.77;;;;;;;;;;4896988;29;20037;-95
2023/04/11 02:48:39;;;;;;;31.75;15.63;;;;;;;;;;4897356;29;20112;-95
2023/04/11 02:51:56;;;;;;;;;;;;;;;;;;;;;
2023/04/11 02:54:51;;;;;;;32.63;16.38;;;;;;;;;;4900979;29;20029;-96
2023/04/11 02:57:47;;;;;;;35.25;17.38;;;;;;;;;;4900297;29;20049;-96
2023/04/11 03:06:10;;;;;;;29.52;15.88;;;;;;;;;;4905116;24;20064;-96
2023/04/11 03:08:53;;;;;;;;;;;;;;;;;;4916301;29;20120;-94
2023/04/11 03:11:52;;;;;;;25.58;13.32;;;;;;;;;;4897555;29;19911;-95
2023/04/11 03:14:55;;;;;;;26.90;13.60;;;;;;;;;;4888318;29;20033;-96
2023/04/11 03:20:51;;;;;;;25.13;13.35;;;;;;;;;;4826133;29;20058;-95
2023/04/11 03:23:49;;;;;;;33.05;15.80;;;;;;;;;;4840771;29;20561;-95
2023/04/11 03:26:43;;;;;;;32.90;16.25;;;;;;;;;;4856257;29;20045;-96
2023/04/11 03:29:22;;;;;;;33.03;16.60;;;;;;;;;;4839273;29;20030;-95
2023/04/11 03:32:05;;;;;;;37.60;17.15;;;;;;;;;;4878893;29;20282;-96
2023/04/11 03:34:41;;;;;;;27.70;13.93;;;;;;;;;;4892565;29;20115;-94
2023/04/11 03:37:12;;;;;;;33.60;16.27;;;;;;;;;;4896201;29;20096;-96
2023/04/11 03:40:02;;;;;;;;;;;;;;;;;;;;;
2023/04/11 03:43:00;;;;;;;;;;;;;;;;;;;;;
2023/04/11 03:49:22;;;;;;;39.55;18.30;;;;;;;;;;4892970;29;20708;-95
2023/04/11 03:52:23;;;;;;;;;;;;;;;;;;;;;
2023/04/11 03:55:25;;;;;;;35.75;17.13;;;;;;;;;;4898624;29;20037;-96
2023/04/11 03:58:15;;;;;;;31.02;15.50;;;;;;;;;;4900327;29;20045;-96
2023/04/11 04:01:24;;;;;;;33.28;16.77;;;;;;;;;;4899437;29;20033;-96
2023/04/11 04:04:13;;;;;;;30.77;15.68;;;;;;;;;;4881859;29;20082;-92
2023/04/11 04:06:39;;;;;;;33.80;16.65;;;;;;;;;;4901426;29;20036;-95
2023/04/11 04:09:05;;;;;;;36.22;17.88;;;;;;;;;;4901531;29;20029;-96
2023/04/11 04:11:32;;;;;;;34.08;17.60;;;;;;;;;;4899512;29;20080;-96
2023/04/11 04:13:58;;;;;;;37.65;17.85;;;;;;;;;;4901145;29;20054;-95
2023/04/11 04:16:28;;;;;;;51.35;22.83;;;;;;;;;;4912875;29;20093;-93
2023/04/11 04:18:59;;;;;;;50.70;24.88;;;;;;;;;;5053022;23;20049;-96
2023/04/11 04:21:25;;;;;;;51.22;24.58;;;;;;;;;;4912053;29;20080;-95
2023/04/11 04:23:52;;;;;;;51.50;22.23;;;;;;;;;;4904843;29;20072;-94
2023/04/11 04:26:23;;;;;;;41.58;20.15;;;;;;;;;;4891015;29;20037;-96
2023/04/11 04:28:52;;;;;;;39.42;18.80;;;;;;;;;;4890397;29;20025;-95
2023/04/11 04:31:24;;;;;;;40.53;20.02;;;;;;;;;;4905700;29;20033;-95
2023/04/11 04:39:40;;;;;;;42.50;19.00;;;;;;;;;;5146077;23;20117;-92
2023/04/11 04:42:07;;;;;;;40.08;21.13;;;;;;;;;;4883550;29;20038;-96
2023/04/11 04:44:37;;;;;;;38.70;19.48;;;;;;;;;;4881711;29;20037;-96
2023/04/11 04:47:03;;;;;;;40.85;19.98;;;;;;;;;;4881462;29;20075;-94
2023/04/11 04:49:29;;;;;;;38.40;19.58;;;;;;;;;;4866515;29;20041;-93
2023/04/11 04:51:58;;;;;;;41.00;18.85;;;;;;;;;;4895860;29;20054;-94
2023/04/11 04:54:25;;;;;;;47.65;20.52;;;;;;;;;;4884863;29;20565;-95
2023/04/11 04:56:51;;;;;;;45.80;20.85;;;;;;;;;;4878577;29;20040;-95
2023/04/11 04:59:18;;;;;;;38.55;19.85;;;;;;;;;;4864206;29;20034;-96
2023/04/11 05:01:45;;;;;;;37.65;19.67;;;;;;;;;;4879537;29;20042;-96
2023/04/11 05:04:15;;;;;;;40.85;19.88;;;;;;;;;;4882149;29;20090;-96
2023/04/11 05:06:44;;;;;;;32.53;17.92;;;;;;;;;;4883627;29;20029;-95
2023/04/11 05:09:10;;;;;;;40.25;18.60;;;;;;;;;;4882979;29;20022;-95
2023/04/11 05:11:39;;;;;;;36.22;18.13;;;;;;;;;;4878771;29;20053;-95
2023/04/11 05:14:15;;;;;;;36.83;18.60;;;;;;;;;;4878616;29;20108;-94
2023/04/11 05:16:45;;;;;;;31.08;17.60;;;;;;;;;;4877321;29;20042;-95
2023/04/11 05:19:13;;;;;;;30.45;18.60;;;;;;;;;;4880625;29;20030;-95
2023/04/11 05:21:43;;;;;;;33.03;18.05;;;;;;;;;;4863480;29;20033;-94
2023/04/11 05:24:19;;;;;;;31.17;18.35;;;;;;;;;;4862090;29;20030;-93
2023/04/11 05:26:48;;;;;;;32.63;18.05;;;;;;;;;;4880020;29;20034;-96
2023/04/11 05:29:17;;;;;;;27.42;16.85;;;;;;;;;;4882302;29;20033;-91
2023/04/11 05:31:44;;;;;;;24.20;14.85;;;;;;;;;;4886016;29;20065;-96
2023/04/11 05:34:33;;;;;;;25.42;15.18;;;;;;;;;;4888266;29;20033;-96
2023/04/11 05:40:20;;;;;;;28.23;16.38;;;;;;;;;;4863800;29;20160;-95
2023/04/11 05:42:48;;;;;;;28.17;16.48;;;;;;;;;;4863841;29;20043;-95
2023/04/11 05:45:23;;;;;;;26.10;16.25;;;;;;;;;;4861471;29;20472;-95
2023/04/11 05:48:12;;;;;;;26.30;16.30;;;;;;;;;;4867313;29;20084;-95
2023/04/11 05:50:45;;;;;;;27.42;17.80;;;;;;;;;;4868281;29;20033;-96
2023/04/11 05:53:16;;;;;;;33.20;20.80;;;;;;;;;;4867006;29;20033;-95
2023/04/11 05:55:42;;;;;;;31.85;19.08;;;;;;;;;;4866199;29;20354;-95
2023/04/11 06:07:50;;;;;;;29.75;19.80;;;;;;;;;;5087412;23;20045;-90
2023/04/11 06:10:56;;;;;;;36.75;21.58;;;;;;;;;;4873577;29;20086;-95
2023/04/11 06:13:48;;;;;;;40.67;23.25;;;;;;;;;;4872189;29;20048;-95
2023/04/11 06:16:41;;;;;;;40.65;22.85;;;;;;;;;;4853082;29;20086;-95
2023/04/11 06:19:57;;;;;;;38.22;23.02;;;;;;;;;;4871745;29;20089;-95
2023/04/11 06:24:57;;;;;;;36.63;22.63;;;;;;;;;;3503071;23;20028;-92
2023/04/11 06:27:50;;;;;;;37.42;22.77;;;;;;;;;;4906012;29;20036;-95
2023/04/11 07:06:48;;;;;;;38.35;25.10;;;;;;;;;;5688526;23;20265;-93
2023/04/11 07:09:21;;;;;;;41.75;25.08;;;;;;;;;;5612029;23;20028;31
2023/04/11 07:20:15;;;;;;;34.85;22.52;;;;;;;;;;5313700;23;20193;-93
2023/04/11 07:28:14;;;;;;;33.47;23.98;;;;;;;;;;5660374;23;20157;-93
2023/04/11 07:49:49;;;;;;;32.03;23.90;;;;;;;;;;5262593;23;20104;-94
2023/04/11 07:52:21;;;;;;;29.95;23.23;;;;;;;;;;4943785;23;20128;-95
2023/04/11 07:54:47;;;;;;;31.52;23.27;;;;;;;;;;5136629;23;20429;-91
2023/04/11 07:57:14;;;;;;;30.77;22.88;;;;;;;;;;4880253;29;20045;-93
2023/04/11 07:59:42;;;;;;;29.33;23.02;;;;;;;;;;4876962;23;20061;-93
2023/04/11 08:07:42;;;;;;;28.83;23.52;;;;;;;;;;5139629;23;20827;-94
2023/04/11 08:10:08;;;;;;;32.05;27.40;;;;;;;;;;4900693;29;20064;-93
2023/04/11 08:12:34;;;;;;;27.83;22.13;;;;;;;;;;4895674;29;20032;-92
2023/04/11 08:15:01;;;;;;;27.30;21.33;;;;;;;;;;4883954;29;20029;-91
2023/04/11 09:41:53;;;;;;;35.25;30.45;;;;;;;;;;5100286;23;20072;-93
2023/04/11 09:44:46;;;;;;;31.00;27.55;;;;;;;;;;4881183;29;20105;-96
2023/04/11 09:47:54;;;;;;;30.25;26.98;;;;;;;;;;4867179;29;20488;-93
2023/04/11 09:50:20;;;;;;;27.98;25.08;;;;;;;;;;4798863;29;20224;-95
2023/04/11 09:58:49;;;;;;;26.60;23.35;;;;;;;;;;5617692;23;20131;31
2023/04/11 10:01:29;;;;;;;29.48;25.27;;;;;;;;;;5491351;23;20125;-92
2023/04/11 10:03:56;;;;;;;31.70;26.27;;;;;;;;;;4891386;29;20052;-92
2023/04/11 10:06:52;;;;;;;29.17;25.05;;;;;;;;;;4907191;29;20035;-91
2023/04/11 10:09:20;;;;;;;28.33;25.15;;;;;;;;;;4946063;23;20024;-92
2023/04/11 10:11:55;;;;;;;29.90;25.70;;;;;;;;;;4972391;23;20057;-89
2023/04/11 10:17:32;;;;;;;33.53;26.30;;;;;;;;;;5007067;23;20073;-92
2023/04/11 10:20:26;;;;;;;32.22;27.70;;;;;;;;;;4907167;29;20025;-91
2023/04/11 10:22:55;;;;;;;;;;;;;;;;;;4904948;29;20021;-91
2023/04/11 10:25:23;;;;;;;29.70;25.40;;;;;;;;;;5173813;23;20014;-89
2023/04/11 10:27:52;;;;;;;31.05;27.65;;;;;;;;;;5128497;23;20051;-90
2023/04/11 10:33:17;;;;;;;31.67;27.23;;;;;;;;;;4887973;29;20037;-91
2023/04/11 10:41:22;;;;;;;30.42;27.13;;;;;;;;;;4968135;23;20061;-90
2023/04/11 10:44:07;;;;;;;33.22;27.88;;;;;;;;;;4900131;29;20037;-95
2023/04/11 10:46:49;;;;;;;31.20;27.23;;;;;;;;;;4900830;29;20415;-95
2023/04/11 10:49:37;;;;;;;31.75;28.30;;;;;;;;;;4901836;29;20036;-88
2023/04/11 10:52:26;;;;;;;29.98;26.65;;;;;;;;;;4900033;29;20029;-93
2023/04/11 10:54:55;;;;;;;31.55;26.83;;;;;;;;;;4905815;29;20033;-94
2023/04/11 10:57:59;;;;;;;32.50;28.15;;;;;;;;;;4931100;29;20112;-89
2023/04/11 11:00:53;;;;;;;32.55;28.33;;;;;;;;;;4904089;29;20031;-94
2023/04/11 11:03:36;;;;;;;32.20;26.65;;;;;;;;;;4906520;29;20073;-90
2023/04/11 11:06:38;;;;;;;30.35;27.08;;;;;;;;;;4887485;29;20059;-91
2023/04/11 11:09:33;;;;;;;35.25;27.08;;;;;;;;;;4886142;29;20123;-94
2023/04/11 11:12:05;;;;;;;33.85;28.10;;;;;;;;;;4892681;29;20032;-95
2023/04/11 11:14:45;;;;;;;31.42;26.35;;;;;;;;;;4889921;29;20044;-94
2023/04/11 11:19:49;;;;;;;34.20;28.35;;;;;;;;;;4944299;23;20219;-91
2023/04/11 11:22:29;;;;;;;34.22;26.38;;;;;;;;;;5098091;23;20495;-94
2023/04/11 11:24:55;;;;;;;37.35;30.35;;;;;;;;;;3567396;23;20421;-92
2023/04/11 11:29:57;;;;;;;33.17;28.02;;;;;;;;;;5253096;23;20144;-90
2023/04/11 11:32:27;;;;;;;35.85;29.45;;;;;;;;;;4909356;29;20104;-91
2023/04/11 11:35:02;;;;;;;32.35;27.92;;;;;;;;;;4907810;29;20500;-96
2023/04/11 11:37:45;;;;;;;32.65;27.92;;;;;;;;;;4903687;29;20040;-94
2023/04/11 11:51:41;;;;;;;32.40;25.85;;;;;;;;;;4895488;29;20036;-92
2023/04/11 11:54:08;;;;;;;24.88;19.30;;;;;;;;;;4910861;29;20088;-94
2023/04/11 12:07:17;;;;;;;21.70;16.55;;;;;;;;;;5867272;23;20026;-91
2023/04/11 12:09:47;;;;;;;19.50;15.23;;;;;;;;;;4895392;29;20048;-95
2023/04/11 12:12:19;;;;;;;15.15;11.82;;;;;;;;;;4892026;29;20037;-91
2023/04/11 12:32:37;;;;;;;16.17;11.63;;;;;;;;;;5879628;23;20027;-96
2023/04/11 12:44:37;;;;;;;13.55;10.60;;;;;;;;;;5959064;23;20923;-89
2023/04/11 12:47:12;;;;;;;18.17;14.52;;;;;;;;;;4841508;29;20035;-92
2023/04/11 12:55:13;;;;;;;14.63;10.85;;;;;;;;;;5349544;23;20362;-92
2023/04/11 13:06:46;;;;;;;12.98;11.07;;;;;;;;;;5447176;23;20479;-93
2023/04/11 13:09:13;;;;;;;14.18;11.25;;;;;;;;;;4910722;29;20132;-91
2023/04/11 13:11:40;;;;;;;14.10;10.98;;;;;;;;;;4892609;29;20123;-91
2023/04/11 13:36:53;;;;;;;15.00;11.67;;;;;;;;;;5599502;23;20024;-92
2023/04/11 14:23:24;;;;;;;21.58;14.95;;;;;;;;;;3810638;23;20232;-93
2023/04/11 14:25:50;;;;;;;;;;;;;;;;;;4859537;29;20033;-91
2023/04/11 14:31:16;;;;;;;25.55;18.55;;;;;;;;;;4903217;24;20057;-91
2023/04/11 14:37:13;;;;;;;;;;;;;;;;;;5050248;23;20059;-94
2023/04/11 14:45:00;;;;;;;12.05;8.82;;;;;;;;;;5558467;23;20057;-91
2023/04/11 15:05:35;;;;;;;3.63;2.28;;;;;;;;;;4870803;29;20065;-96
2023/04/11 15:08:02;;;;;;;3.70;1.52;;;;;;;;;;4888912;29;20014;-95
2023/04/11 15:24:09;;;;;;;6.40;2.22;;;;;;;;;;5778562;23;20049;-90
2023/04/11 15:42:24;;;;;;;4.15;2.22;;;;;;;;;;4890719;27;20045;-95
2023/04/11 15:44:56;;;;;;;3.67;2.00;;;;;;;;;;4887054;29;20470;-95
2023/04/11 15:47:51;;;;;;;3.55;2.40;;;;;;;;;;4892951;29;20029;-94
2023/04/11 15:53:36;;;;;;;4.07;2.67;;;;;;;;;;4861139;29;20030;-92
2023/04/11 15:59:17;;;;;;;3.83;2.40;;;;;;;;;;4872775;29;20459;-94
2023/04/11 16:04:49;;;;;;;4.70;2.78;;;;;;;;;;5629607;23;20156;-94
2023/04/11 16:07:18;;;;;;;5.70;3.60;;;;;;;;;;4900951;29;20034;-95
2023/04/11 16:10:22;;;;;;;5.93;3.72;;;;;;;;;;4898238;29;20032;-94
2023/04/11 16:13:23;;;;;;;5.70;3.17;;;;;;;;;;4899108;29;20033;-96
2023/04/11 16:16:10;;;;;;;5.82;3.90;;;;;;;;;;4871258;29;20314;-95
2023/04/11 16:18:39;;;;;;;3.67;3.03;;;;;;;;;;4903422;29;20169;-94
2023/04/11 16:21:23;;;;;;;6.32;3.88;;;;;;;;;;4901732;29;20056;-91
2023/04/11 16:23:54;;;;;;;5.10;3.65;;;;;;;;;;4875140;29;20033;-95
2023/04/11 16:26:57;;;;;;;;;;;;;;;;;;;;;
2023/04/11 16:35:48;;;;;;;6.40;4.32;;;;;;;;;;4901417;29;20123;-95
2023/04/11 16:47:14;;;;;;;7.28;5.15;;;;;;;;;;4874751;29;20059;-93
2023/04/11 16:49:44;;;;;;;7.93;5.10;;;;;;;;;;4886742;29;20040;-95
2023/04/11 16:54:57;;;;;;;8.32;5.43;;;;;;;;;;4816657;29;20026;-91
2023/04/11 17:00:47;;;;;;;10.40;6.22;;;;;;;;;;4799278;29;20940;-95
2023/04/11 17:03:24;;;;;;;7.53;4.90;;;;;;;;;;4791409;29;20054;-88
2023/04/11 17:05:50;;;;;;;8.38;4.93;;;;;;;;;;4798936;29;20085;-90
2023/04/11 17:08:19;;;;;;;8.35;6.43;;;;;;;;;;4795229;29;20035;-88
2023/04/11 17:10:51;;;;;;;9.93;6.95;;;;;;;;;;4797292;29;20042;-87
2023/04/11 17:13:45;;;;;;;11.90;8.40;;;;;;;;;;4803145;29;20147;-96
2023/04/11 17:16:11;;;;;;;16.33;9.82;;;;;;;;;;4815523;29;20039;-89
2023/04/11 17:18:37;;;;;;;10.50;7.68;;;;;;;;;;4860269;29;20029;-86
2023/04/11 17:21:07;;;;;;;8.10;5.60;;;;;;;;;;4886262;29;20034;-96
2023/04/11 17:23:35;;;;;;;10.60;6.22;;;;;;;;;;4869395;29;20044;-96
2023/04/11 17:26:01;;;;;;;12.30;6.32;;;;;;;;;;4876413;29;20025;-96
2023/04/11 17:28:35;;;;;;;14.05;6.40;;;;;;;;;;4867031;29;20518;-96
2023/04/11 17:31:09;;;;;;;11.10;6.65;;;;;;;;;;4883837;29;20030;-93
2023/04/11 17:33:37;;;;;;;10.60;6.60;;;;;;;;;;4877396;29;20034;-90
2023/04/11 17:36:31;;;;;;;8.52;6.10;;;;;;;;;;4878848;29;20064;-94
2023/04/11 17:41:47;;;;;;;14.32;6.53;;;;;;;;;;5012404;23;20061;-91
2023/04/11 17:44:13;;;;;;;13.80;6.32;;;;;;;;;;5130200;23;20925;-96
2023/04/11 17:47:07;;;;;;;;;;;;;;;;;;;;;
2023/04/11 17:49:46;;;;;;;8.95;5.75;;;;;;;;;;5255379;23;20510;-95
2023/04/11 17:55:51;;;;;;;11.20;4.28;;;;;;;;;;5346684;23;20065;-89
2023/04/11 17:58:26;;;;;;;4.25;2.30;;;;;;;;;;4925526;23;20049;-88
2023/04/11 18:19:25;;;;;;;6.35;1.13;;;;;;;;;;5514596;23;20083;-89
2023/04/11 18:22:17;;;;;;;2.90;1.52;;;;;;;;;;5222704;23;20037;-96
2023/04/11 18:27:54;;;;;;;5.72;1.50;;;;;;;;;;5420160;23;20061;-91
2023/04/11 18:30:22;;;;;;;3.55;1.70;;;;;;;;;;5373652;23;20110;-91
2023/04/11 18:32:56;;;;;;;6.60;2.30;;;;;;;;;;5521717;23;20135;-91
2023/04/11 18:35:26;;;;;;;5.55;1.65;;;;;;;;;;4995605;23;20128;-86
2023/04/11 18:40:25;;;;;;;2.72;1.20;;;;;;;;;;4888223;29;20069;-90
2023/04/11 19:32:46;;;;;;;5.90;2.30;;;;;;;;;;4900461;29;20052;-95
2023/04/11 19:35:33;;;;;;;4.78;1.75;;;;;;;;;;4923569;24;20083;-94
2023/04/11 19:45:20;;;;;;;3.35;1.63;;;;;;;;;;4900227;29;20092;-96
2023/04/11 19:48:13;;;;;;;4.80;1.70;;;;;;;;;;4901481;29;20023;-96
2023/04/11 19:51:28;;;;;;;2.47;1.30;;;;;;;;;;5565928;23;20079;-96
2023/04/11 19:59:48;;;;;;;3.20;1.52;;;;;;;;;;4896317;29;20144;-96
2023/04/11 20:02:24;;;;;;;3.70;1.33;;;;;;;;;;4895912;29;20044;-95
2023/04/11 20:26:45;;;;;;;4.28;1.90;;;;;;;;;;5177088;23;20061;-95
2023/04/11 20:29:48;;;;;;;3.92;1.73;;;;;;;;;;5147932;23;20402;-96
2023/04/11 20:35:37;;;;;;;4.53;2.00;;;;;;;;;;4894026;29;20509;-89
2023/04/11 20:52:02;;;;;;;5.45;2.50;;;;;;;;;;5713971;23;20056;-90
2023/04/11 20:54:31;;;;;;;3.88;2.67;;;;;;;;;;5089977;23;20057;-93
2023/04/11 20:57:01;;;;;;;6.13;2.75;;;;;;;;;;4906183;29;20061;-90
2023/04/11 20:59:33;;;;;;;5.53;2.67;;;;;;;;;;4904778;29;20119;-96
2023/04/11 21:02:21;;;;;;;5.82;2.55;;;;;;;;;;4904266;29;20063;-96
2023/04/11 21:05:00;;;;;;;5.70;2.30;;;;;;;;;;4899528;29;20359;-96
2023/04/11 21:07:32;;;;;;;5.75;2.30;;;;;;;;;;4903244;29;20025;-90
2023/04/11 21:10:07;;;;;;;5.18;2.67;;;;;;;;;;4898548;29;20104;-89
2023/04/11 21:12:52;;;;;;;6.22;2.75;;;;;;;;;;4902059;29;20009;-90
2023/04/11 21:15:40;;;;;;;6.03;2.28;;;;;;;;;;4902486;29;20041;-96
2023/04/11 21:18:06;;;;;;;5.80;2.83;;;;;;;;;;4899385;29;20052;-93
2023/04/11 21:21:11;;;;;;;5.65;2.70;;;;;;;;;;4886543;29;20032;-96
2023/04/11 21:26:14;;;;;;;4.95;2.78;;;;;;;;;;4930260;23;20057;-89
2023/04/11 21:28:41;;;;;;;4.03;2.45;;;;;;;;;;4901877;29;20031;-89
2023/04/11 21:31:29;;;;;;;4.90;2.40;;;;;;;;;;4904626;29;20033;-91
2023/04/11 21:34:02;;;;;;;4.85;2.58;;;;;;;;;;4900103;29;20037;-92
2023/04/11 21:36:31;;;;;;;5.53;2.20;;;;;;;;;;4908167;29;20088;-96
2023/04/11 21:39:10;;;;;;;6.70;2.28;;;;;;;;;;4889413;29;20033;-90
2023/04/11 21:45:00;;;;;;;4.00;1.93;;;;;;;;;;4890067;29;20044;-96
2023/04/11 21:47:54;;;;;;;4.32;1.85;;;;;;;;;;4901431;29;20282;-96
2023/04/11 21:56:50;;;;;;;5.82;2.80;;;;;;;;;;4910372;29;20500;-96
2023/04/11 22:04:46;;;;;;;4.50;2.08;;;;;;;;;;4895329;23;20088;-96
2023/04/11 22:07:14;;;;;;;3.67;1.90;;;;;;;;;;4930733;23;20077;-91
2023/04/11 22:09:45;;;;;;;3.13;1.65;;;;;;;;;;5211806;23;20391;-90
2023/04/11 22:12:33;;;;;;;5.80;2.13;;;;;;;;;;4902409;29;20041;-96
2023/04/11 22:15:37;;;;;;;5.68;1.60;;;;;;;;;;4907324;29;20025;-96
2023/04/11 22:18:09;;;;;;;2.70;1.60;;;;;;;;;;4900885;29;20140;-88
2023/04/11 22:23:11;;;;;;;7.28;2.10;;;;;;;;;;4931761;23;20065;-90
2023/04/11 22:26:13;;;;;;;6.65;2.13;;;;;;;;;;4891870;29;20029;-91
2023/04/11 22:43:26;;;;;;;4.82;1.20;;;;;;;;;;4874834;29;20042;-90
2023/04/11 22:51:05;;;;;;;5.55;1.60;;;;;;;;;;5710060;23;20059;-96
2023/04/11 23:08:14;;;;;;;7.57;1.92;;;;;;;;;;5431159;23;20603;-96
2023/04/11 23:13:49;;;;;;;4.50;2.15;;;;;;;;;;5104949;23;20102;-96
2023/04/11 23:19:46;;;;;;;5.10;2.05;;;;;;;;;;4860144;29;20148;-96
2023/04/11 23:22:12;;;;;;;;;;;;;;;;;;4854440;29;20013;-94
2023/04/11 23:35:51;;;;;;;3.47;2.00;;;;;;;;;;4923380;23;20064;-96
2023/04/11 23:41:56;;;;;;;5.10;2.17;;;;;;;;;;5023835;23;20084;-96
2023/04/11 23:58:42;;;;;;;4.72;2.45;;;;;;;;;;5147424;23;20084;-96
